Location Isle ofWight, ISLE OF WIGHT, UK

ob UISISLE1 282230Z AUTO 04001G01KT CLR 13/13 A2941 RMK SLPNO 

2017.06.28 2230 UTC
Wind from the NE (038 degrees) at 1.4 MPH (1 KT) gusting to 1.0 MPH (1 KT)
Visibility    Mile(s)
Sky Conditions  clear
Temperature 56.2 F (13 C)
Dew Point 54.8 F (13 C)
Relative Humidity 95%
Pressure   29.416 in. Hg (996 hPa)
Rain  0.00 in.
Daily Rain 0.339 in.

Station Name  Isle of Wight Weather
Longitude, Latitude  -1.271, 50.72
Elevation 45
Station URL http://www.isleofwightweather.co.uk
Software Type WeatherDisplay:10.37R